Last 24 Hours

Squaw-Siberia 8700'

Hourly Data | America/Los_Angeles
as of 1/15/21 12:58 PM PST
Date & Time Temp (°F) RH (%) Dew Pt (°F) Wet Bulb (°F) Wind Dir (°) Wind Spd (mph) Wind Gust (mph) WindChill (°F) Daily Min Temp (°F) Daily Max Temp (°F)
1/15/21 - 1200 48.1 25 14.0 34.6 W | 259 25.0 36.3 39.4 45.9 50.6
1/15/21 - 1100 48.2 26 14.8 34.8 WSW | 249 24.9 33.9 40.6 45.9 50.6
1/15/21 - 1000 48.6 19 7.9 33.6 WSW | 251 23.1 33.2 41.5 45.9 50.6
1/15/21 - 0900 47.8 17 5.3 32.7 WSW | 244 20.8 31.1 40.2 45.9 50.6
1/15/21 - 0800 47.2 18 6.3 32.6 W | 260 16.5 22.3 41.9 45.9 50.6
1/15/21 - 0700 48.0 12 -2.2 31.7 W | 261 9.0 14.1 45.5 45.9 50.6
1/15/21 - 0600 48.8 10 -6.0 31.7 WNW | 290 6.5 12.0 46.1 45.9 50.6
1/15/21 - 0500 48.8 8 -10.0 31.3 WNW | 302 6.3 10.4 44.3 45.9 50.6
1/15/21 - 0400 46.8 19 6.9 32.5 NW | 305 6.5 10.5 46.4 46.2 50.6
1/15/21 - 0300 49.6 9 -8.1 31.9 WNW | 285 7.5 12.2 44.5 46.2 50.6
1/15/21 - 0200 48.1 17 5.3 32.8 S | 190 3.8 11.5 48.1 47.3 50.6
1/15/21 - 0100 50.2 10 -3.8 32.7 ESE | 104 11.9 19.4 43.7 47.3 50.2
1/15/21 - 0000 47.6 29 16.7 34.9 E | 79 18.1 22.8 39.7 36.8 47.9
1/14/21 - 2300 45.8 32 17.4 34.2 E | 86 13.6 19.0 40.5 36.8 47.9
1/14/21 - 2200 46.9 32 18.9 35.2 E | 89 11.3 17.5 41.0 36.8 47.9
1/14/21 - 2100 47.0 30 17.5 34.8 E | 92 15.2 19.7 39.2 36.8 47.9
1/14/21 - 2000 45.1 37 20.3 34.6 E | 96 12.5 17.6 39.7 36.8 47.9
1/14/21 - 1900 44.8 38 21.1 34.7 E | 90 15.6 21.2 36.3 36.8 45.4
1/14/21 - 1800 42.4 39 19.5 33.0 ENE | 72 18.2 26.8 33.4 36.8 43.2
1/14/21 - 1700 41.2 34 15.3 31.2 ENE | 71 19.3 24.7 32.7 36.8 43.1
1/14/21 - 1600 42.1 38 18.5 32.5 ENE | 72 18.9 25.6 33.4 36.8 43.1
1/14/21 - 1500 41.9 35 16.6 31.9 ENE | 76 17.9 24.0 33.5 36.8 43.1
1/14/21 - 1400 42.0 35 16.1 31.8 ENE | 71 20.0 29.3 32.7 36.8 43.1
1/14/21 - 1300 42.2 34 15.6 31.8 ENE | 69 26.1 33.3 31.9 36.8 43.1
1/14/21 - 1200 41.7 32 14.1 31.2 ENE | 71 22.2 30.5 31.4 36.8 43.1
Max 50.2 39 21.1 35.2 - 26.1 36.3 48.1 47.3 50.6
Avg 46.0 25 10.3 33.0 - 15.6 22.3 39.5 - -
Min 41.2 8 -10.0 31.2 - 3.8 10.4 31.4 36.8 43.1